sensor_id;sensor_type;location;lat;lon;timestamp;P1;durP1;ratioP1;P2;durP2;ratioP2
2225;SDS011;1119;48.288;8.726;2022-08-30T00:02:16;10.33;;;9.63;;
2225;SDS011;1119;48.288;8.726;2022-08-30T00:04:44;9.93;;;9.00;;
2225;SDS011;1119;48.288;8.726;2022-08-30T00:07:12;9.70;;;9.00;;
2225;SDS011;1119;48.288;8.726;2022-08-30T00:09:39;10.53;;;9.80;;
2225;SDS011;1119;48.288;8.726;2022-08-30T00:12:06;11.97;;;10.97;;
2225;SDS011;1119;48.288;8.726;2022-08-30T00:14:34;10.47;;;9.57;;
2225;SDS011;1119;48.288;8.726;2022-08-30T00:17:02;10.70;;;9.90;;
2225;SDS011;1119;48.288;8.726;2022-08-30T00:19:29;10.77;;;10.07;;
2225;SDS011;1119;48.288;8.726;2022-08-30T00:21:58;10.23;;;9.60;;
2225;SDS011;1119;48.288;8.726;2022-08-30T00:24:25;11.83;;;10.67;;
2225;SDS011;1119;48.288;8.726;2022-08-30T00:26:52;11.70;;;10.90;;
2225;SDS011;1119;48.288;8.726;2022-08-30T00:29:19;11.30;;;10.50;;
2225;SDS011;1119;48.288;8.726;2022-08-30T00:31:46;11.07;;;10.17;;
2225;SDS011;1119;48.288;8.726;2022-08-30T00:34:14;10.20;;;9.50;;
2225;SDS011;1119;48.288;8.726;2022-08-30T00:36:41;10.83;;;10.10;;
2225;SDS011;1119;48.288;8.726;2022-08-30T00:39:10;11.13;;;10.40;;
2225;SDS011;1119;48.288;8.726;2022-08-30T00:41:38;10.00;;;9.20;;
2225;SDS011;1119;48.288;8.726;2022-08-30T00:44:05;10.83;;;10.13;;
2225;SDS011;1119;48.288;8.726;2022-08-30T00:46:32;11.13;;;10.13;;
2225;SDS011;1119;48.288;8.726;2022-08-30T00:49:00;12.70;;;11.80;;
2225;SDS011;1119;48.288;8.726;2022-08-30T00:51:32;9.87;;;9.10;;
2225;SDS011;1119;48.288;8.726;2022-08-30T00:54:00;11.43;;;10.40;;
2225;SDS011;1119;48.288;8.726;2022-08-30T00:56:30;10.47;;;9.67;;
2225;SDS011;1119;48.288;8.726;2022-08-30T00:58:59;10.77;;;9.97;;
2225;SDS011;1119;48.288;8.726;2022-08-30T01:01:30;11.33;;;10.50;;
2225;SDS011;1119;48.288;8.726;2022-08-30T01:04:00;9.80;;;9.17;;
2225;SDS011;1119;48.288;8.726;2022-08-30T01:06:29;10.70;;;9.90;;
2225;SDS011;1119;48.288;8.726;2022-08-30T01:08:58;10.47;;;9.63;;
2225;SDS011;1119;48.288;8.726;2022-08-30T01:11:27;10.83;;;9.73;;
2225;SDS011;1119;48.288;8.726;2022-08-30T01:13:59;10.67;;;9.87;;
2225;SDS011;1119;48.288;8.726;2022-08-30T01:16:29;12.70;;;10.97;;
2225;SDS011;1119;48.288;8.726;2022-08-30T01:18:58;10.80;;;10.00;;
2225;SDS011;1119;48.288;8.726;2022-08-30T01:21:28;10.83;;;9.93;;
2225;SDS011;1119;48.288;8.726;2022-08-30T01:24:02;10.90;;;10.10;;
2225;SDS011;1119;48.288;8.726;2022-08-30T01:26:31;11.13;;;10.23;;
2225;SDS011;1119;48.288;8.726;2022-08-30T01:29:01;11.63;;;10.83;;
2225;SDS011;1119;48.288;8.726;2022-08-30T01:31:33;9.70;;;8.87;;
2225;SDS011;1119;48.288;8.726;2022-08-30T01:34:01;11.13;;;10.33;;
2225;SDS011;1119;48.288;8.726;2022-08-30T01:36:29;11.97;;;10.93;;
2225;SDS011;1119;48.288;8.726;2022-08-30T01:38:57;10.47;;;9.77;;
2225;SDS011;1119;48.288;8.726;2022-08-30T01:41:27;10.20;;;9.30;;
2225;SDS011;1119;48.288;8.726;2022-08-30T01:43:57;11.37;;;10.53;;
2225;SDS011;1119;48.288;8.726;2022-08-30T01:46:30;10.27;;;9.50;;
2225;SDS011;1119;48.288;8.726;2022-08-30T01:49:02;10.83;;;10.07;;
2225;SDS011;1119;48.288;8.726;2022-08-30T01:51:42;10.33;;;9.43;;
2225;SDS011;1119;48.288;8.726;2022-08-30T01:54:09;10.47;;;9.57;;
2225;SDS011;1119;48.288;8.726;2022-08-30T01:56:38;12.20;;;11.00;;
2225;SDS011;1119;48.288;8.726;2022-08-30T01:59:05;11.80;;;10.80;;
2225;SDS011;1119;48.288;8.726;2022-08-30T02:01:33;11.03;;;10.03;;
2225;SDS011;1119;48.288;8.726;2022-08-30T02:04:04;12.27;;;11.43;;
2225;SDS011;1119;48.288;8.726;2022-08-30T02:06:32;13.27;;;12.37;;
2225;SDS011;1119;48.288;8.726;2022-08-30T02:09:00;10.53;;;9.80;;
2225;SDS011;1119;48.288;8.726;2022-08-30T02:11:27;12.80;;;11.50;;
2225;SDS011;1119;48.288;8.726;2022-08-30T02:13:55;12.00;;;10.90;;
2225;SDS011;1119;48.288;8.726;2022-08-30T02:16:23;11.00;;;10.20;;
2225;SDS011;1119;48.288;8.726;2022-08-30T02:18:51;11.90;;;11.00;;
2225;SDS011;1119;48.288;8.726;2022-08-30T02:21:21;12.23;;;11.23;;
2225;SDS011;1119;48.288;8.726;2022-08-30T02:23:49;11.30;;;10.50;;
2225;SDS011;1119;48.288;8.726;2022-08-30T02:26:17;12.00;;;11.10;;
2225;SDS011;1119;48.288;8.726;2022-08-30T02:28:46;13.00;;;12.00;;
2225;SDS011;1119;48.288;8.726;2022-08-30T02:31:15;11.80;;;10.90;;
2225;SDS011;1119;48.288;8.726;2022-08-30T02:33:43;11.47;;;10.43;;
2225;SDS011;1119;48.288;8.726;2022-08-30T02:36:10;12.80;;;11.77;;
2225;SDS011;1119;48.288;8.726;2022-08-30T02:38:37;11.00;;;10.03;;
2225;SDS011;1119;48.288;8.726;2022-08-30T02:41:05;10.93;;;10.10;;
2225;SDS011;1119;48.288;8.726;2022-08-30T02:43:32;10.73;;;10.00;;
2225;SDS011;1119;48.288;8.726;2022-08-30T02:45:59;11.60;;;10.77;;
2225;SDS011;1119;48.288;8.726;2022-08-30T02:48:27;11.90;;;10.87;;
2225;SDS011;1119;48.288;8.726;2022-08-30T02:50:55;11.63;;;10.80;;
2225;SDS011;1119;48.288;8.726;2022-08-30T02:53:22;11.80;;;10.77;;
2225;SDS011;1119;48.288;8.726;2022-08-30T02:55:49;10.93;;;10.23;;
2225;SDS011;1119;48.288;8.726;2022-08-30T02:58:16;11.93;;;10.93;;
2225;SDS011;1119;48.288;8.726;2022-08-30T03:00:43;11.27;;;10.47;;
2225;SDS011;1119;48.288;8.726;2022-08-30T03:03:10;12.50;;;11.50;;
2225;SDS011;1119;48.288;8.726;2022-08-30T03:05:39;12.20;;;11.30;;
2225;SDS011;1119;48.288;8.726;2022-08-30T03:08:06;11.03;;;10.20;;
2225;SDS011;1119;48.288;8.726;2022-08-30T03:10:33;12.00;;;11.00;;
2225;SDS011;1119;48.288;8.726;2022-08-30T03:13:03;12.90;;;11.80;;
2225;SDS011;1119;48.288;8.726;2022-08-30T03:15:31;13.37;;;12.07;;
2225;SDS011;1119;48.288;8.726;2022-08-30T03:17:59;12.67;;;11.40;;
2225;SDS011;1119;48.288;8.726;2022-08-30T03:20:27;13.57;;;12.47;;
2225;SDS011;1119;48.288;8.726;2022-08-30T03:22:56;12.60;;;11.80;;
2225;SDS011;1119;48.288;8.726;2022-08-30T03:25:23;12.87;;;11.60;;
2225;SDS011;1119;48.288;8.726;2022-08-30T03:27:50;11.67;;;10.70;;
2225;SDS011;1119;48.288;8.726;2022-08-30T03:30:18;11.80;;;10.73;;
2225;SDS011;1119;48.288;8.726;2022-08-30T03:32:46;12.70;;;11.80;;
2225;SDS011;1119;48.288;8.726;2022-08-30T03:35:14;13.40;;;12.20;;
2225;SDS011;1119;48.288;8.726;2022-08-30T03:37:42;12.97;;;12.00;;
2225;SDS011;1119;48.288;8.726;2022-08-30T03:40:12;13.83;;;12.80;;
2225;SDS011;1119;48.288;8.726;2022-08-30T03:42:42;13.50;;;12.50;;
2225;SDS011;1119;48.288;8.726;2022-08-30T03:45:10;13.43;;;12.43;;
2225;SDS011;1119;48.288;8.726;2022-08-30T03:47:39;12.90;;;11.80;;
2225;SDS011;1119;48.288;8.726;2022-08-30T03:50:06;12.50;;;11.47;;
2225;SDS011;1119;48.288;8.726;2022-08-30T03:52:35;11.50;;;10.50;;
2225;SDS011;1119;48.288;8.726;2022-08-30T03:55:02;12.00;;;11.10;;
2225;SDS011;1119;48.288;8.726;2022-08-30T03:57:32;12.90;;;11.93;;
2225;SDS011;1119;48.288;8.726;2022-08-30T03:59:59;12.53;;;11.60;;
2225;SDS011;1119;48.288;8.726;2022-08-30T04:02:36;13.20;;;12.20;;
2225;SDS011;1119;48.288;8.726;2022-08-30T04:05:04;12.60;;;11.40;;
2225;SDS011;1119;48.288;8.726;2022-08-30T04:07:32;14.37;;;13.30;;
2225;SDS011;1119;48.288;8.726;2022-08-30T04:10:00;13.20;;;11.87;;
2225;SDS011;1119;48.288;8.726;2022-08-30T04:12:27;12.50;;;11.40;;
2225;SDS011;1119;48.288;8.726;2022-08-30T04:14:56;12.50;;;11.20;;
2225;SDS011;1119;48.288;8.726;2022-08-30T04:17:23;14.50;;;13.40;;
2225;SDS011;1119;48.288;8.726;2022-08-30T04:19:50;12.50;;;11.50;;
2225;SDS011;1119;48.288;8.726;2022-08-30T04:22:17;13.67;;;12.57;;
2225;SDS011;1119;48.288;8.726;2022-08-30T04:24:45;11.10;;;10.20;;
2225;SDS011;1119;48.288;8.726;2022-08-30T04:27:12;13.43;;;12.17;;
2225;SDS011;1119;48.288;8.726;2022-08-30T04:29:39;14.70;;;12.37;;
2225;SDS011;1119;48.288;8.726;2022-08-30T04:32:09;15.63;;;14.33;;
2225;SDS011;1119;48.288;8.726;2022-08-30T04:34:36;14.87;;;13.47;;
2225;SDS011;1119;48.288;8.726;2022-08-30T04:37:03;14.53;;;13.30;;
2225;SDS011;1119;48.288;8.726;2022-08-30T04:39:31;12.83;;;11.73;;
2225;SDS011;1119;48.288;8.726;2022-08-30T04:41:58;13.50;;;12.40;;
2225;SDS011;1119;48.288;8.726;2022-08-30T04:44:25;13.73;;;12.50;;
2225;SDS011;1119;48.288;8.726;2022-08-30T04:46:52;13.90;;;12.80;;
2225;SDS011;1119;48.288;8.726;2022-08-30T04:49:21;13.07;;;11.90;;
2225;SDS011;1119;48.288;8.726;2022-08-30T04:51:48;15.03;;;13.80;;
2225;SDS011;1119;48.288;8.726;2022-08-30T04:54:15;14.50;;;13.40;;
2225;SDS011;1119;48.288;8.726;2022-08-30T04:56:42;14.03;;;12.63;;
2225;SDS011;1119;48.288;8.726;2022-08-30T04:59:09;14.43;;;13.27;;
2225;SDS011;1119;48.288;8.726;2022-08-30T05:01:37;13.03;;;11.77;;
2225;SDS011;1119;48.288;8.726;2022-08-30T05:04:04;14.07;;;12.97;;
2225;SDS011;1119;48.288;8.726;2022-08-30T05:06:32;13.53;;;12.10;;
2225;SDS011;1119;48.288;8.726;2022-08-30T05:09:01;13.93;;;12.63;;
2225;SDS011;1119;48.288;8.726;2022-08-30T05:11:28;12.60;;;11.60;;
2225;SDS011;1119;48.288;8.726;2022-08-30T05:13:55;16.30;;;14.80;;
2225;SDS011;1119;48.288;8.726;2022-08-30T05:16:23;13.83;;;12.40;;
2225;SDS011;1119;48.288;8.726;2022-08-30T05:18:50;14.10;;;12.50;;
2225;SDS011;1119;48.288;8.726;2022-08-30T05:21:20;14.67;;;13.27;;
2225;SDS011;1119;48.288;8.726;2022-08-30T05:23:51;14.00;;;12.87;;
2225;SDS011;1119;48.288;8.726;2022-08-30T05:26:20;12.97;;;11.97;;
2225;SDS011;1119;48.288;8.726;2022-08-30T05:28:49;13.57;;;12.43;;
2225;SDS011;1119;48.288;8.726;2022-08-30T05:31:17;14.53;;;13.23;;
2225;SDS011;1119;48.288;8.726;2022-08-30T05:33:46;12.97;;;11.97;;
2225;SDS011;1119;48.288;8.726;2022-08-30T05:36:16;11.53;;;10.50;;
2225;SDS011;1119;48.288;8.726;2022-08-30T05:38:45;11.83;;;10.90;;
2225;SDS011;1119;48.288;8.726;2022-08-30T05:41:13;12.87;;;11.73;;
2225;SDS011;1119;48.288;8.726;2022-08-30T05:43:41;13.80;;;12.60;;
2225;SDS011;1119;48.288;8.726;2022-08-30T05:46:09;14.40;;;13.30;;
2225;SDS011;1119;48.288;8.726;2022-08-30T05:48:38;12.00;;;11.00;;
2225;SDS011;1119;48.288;8.726;2022-08-30T05:51:07;12.43;;;11.20;;
2225;SDS011;1119;48.288;8.726;2022-08-30T05:53:36;13.73;;;12.43;;
2225;SDS011;1119;48.288;8.726;2022-08-30T05:56:06;11.40;;;10.60;;
2225;SDS011;1119;48.288;8.726;2022-08-30T05:58:37;16.33;;;11.47;;
2225;SDS011;1119;48.288;8.726;2022-08-30T06:01:05;12.77;;;11.77;;
2225;SDS011;1119;48.288;8.726;2022-08-30T06:03:33;12.67;;;11.77;;
2225;SDS011;1119;48.288;8.726;2022-08-30T06:06:00;11.83;;;11.07;;
2225;SDS011;1119;48.288;8.726;2022-08-30T06:08:28;13.73;;;12.50;;
2225;SDS011;1119;48.288;8.726;2022-08-30T06:10:55;12.97;;;12.07;;
2225;SDS011;1119;48.288;8.726;2022-08-30T06:13:22;12.23;;;11.43;;
2225;SDS011;1119;48.288;8.726;2022-08-30T06:15:50;13.57;;;12.60;;
2225;SDS011;1119;48.288;8.726;2022-08-30T06:18:17;12.87;;;11.97;;
2225;SDS011;1119;48.288;8.726;2022-08-30T06:20:45;12.77;;;11.67;;
2225;SDS011;1119;48.288;8.726;2022-08-30T06:23:13;11.83;;;11.13;;
2225;SDS011;1119;48.288;8.726;2022-08-30T06:25:42;11.80;;;11.10;;
2225;SDS011;1119;48.288;8.726;2022-08-30T06:28:09;13.07;;;12.10;;
2225;SDS011;1119;48.288;8.726;2022-08-30T06:30:38;13.50;;;12.33;;
2225;SDS011;1119;48.288;8.726;2022-08-30T06:33:07;13.07;;;12.13;;
2225;SDS011;1119;48.288;8.726;2022-08-30T06:35:35;13.80;;;12.80;;
2225;SDS011;1119;48.288;8.726;2022-08-30T06:38:02;13.30;;;12.30;;
2225;SDS011;1119;48.288;8.726;2022-08-30T06:40:29;12.80;;;11.80;;
2225;SDS011;1119;48.288;8.726;2022-08-30T06:42:57;14.00;;;13.00;;
2225;SDS011;1119;48.288;8.726;2022-08-30T06:45:24;12.50;;;11.60;;
2225;SDS011;1119;48.288;8.726;2022-08-30T06:47:51;13.53;;;12.73;;
2225;SDS011;1119;48.288;8.726;2022-08-30T06:50:19;12.17;;;11.47;;
2225;SDS011;1119;48.288;8.726;2022-08-30T06:52:46;12.43;;;11.47;;
2225;SDS011;1119;48.288;8.726;2022-08-30T06:55:14;11.63;;;10.83;;
2225;SDS011;1119;48.288;8.726;2022-08-30T06:57:42;10.97;;;10.37;;
2225;SDS011;1119;48.288;8.726;2022-08-30T07:00:11;13.07;;;12.17;;
2225;SDS011;1119;48.288;8.726;2022-08-30T07:02:41;12.30;;;11.50;;
2225;SDS011;1119;48.288;8.726;2022-08-30T07:05:08;14.43;;;13.33;;
2225;SDS011;1119;48.288;8.726;2022-08-30T07:07:38;12.63;;;11.63;;
2225;SDS011;1119;48.288;8.726;2022-08-30T07:10:06;13.03;;;12.23;;
2225;SDS011;1119;48.288;8.726;2022-08-30T07:12:34;13.13;;;12.23;;
2225;SDS011;1119;48.288;8.726;2022-08-30T07:15:03;11.43;;;10.77;;
2225;SDS011;1119;48.288;8.726;2022-08-30T07:17:32;11.43;;;10.73;;
2225;SDS011;1119;48.288;8.726;2022-08-30T07:20:28;11.87;;;10.87;;
2225;SDS011;1119;48.288;8.726;2022-08-30T07:22:57;12.63;;;11.63;;
2225;SDS011;1119;48.288;8.726;2022-08-30T07:25:24;12.53;;;11.60;;
2225;SDS011;1119;48.288;8.726;2022-08-30T07:27:51;12.53;;;11.77;;
2225;SDS011;1119;48.288;8.726;2022-08-30T07:30:18;12.10;;;11.20;;
2225;SDS011;1119;48.288;8.726;2022-08-30T07:32:46;10.57;;;9.97;;
2225;SDS011;1119;48.288;8.726;2022-08-30T07:35:13;12.13;;;11.33;;
2225;SDS011;1119;48.288;8.726;2022-08-30T07:37:40;12.63;;;11.40;;
2225;SDS011;1119;48.288;8.726;2022-08-30T07:40:09;12.27;;;11.37;;
2225;SDS011;1119;48.288;8.726;2022-08-30T07:42:37;12.57;;;11.77;;
2225;SDS011;1119;48.288;8.726;2022-08-30T07:45:06;11.33;;;10.43;;
2225;SDS011;1119;48.288;8.726;2022-08-30T07:47:34;11.73;;;10.93;;
2225;SDS011;1119;48.288;8.726;2022-08-30T07:50:02;11.60;;;10.73;;
2225;SDS011;1119;48.288;8.726;2022-08-30T07:52:31;10.70;;;10.10;;
2225;SDS011;1119;48.288;8.726;2022-08-30T07:54:59;11.30;;;10.50;;
2225;SDS011;1119;48.288;8.726;2022-08-30T07:57:27;10.83;;;10.13;;
2225;SDS011;1119;48.288;8.726;2022-08-30T07:59:57;10.70;;;10.00;;
2225;SDS011;1119;48.288;8.726;2022-08-30T08:02:25;11.53;;;10.87;;
2225;SDS011;1119;48.288;8.726;2022-08-30T08:04:52;11.93;;;11.30;;
2225;SDS011;1119;48.288;8.726;2022-08-30T08:07:20;11.20;;;10.50;;
2225;SDS011;1119;48.288;8.726;2022-08-30T08:09:47;11.20;;;10.43;;
2225;SDS011;1119;48.288;8.726;2022-08-30T08:12:14;11.30;;;10.60;;
2225;SDS011;1119;48.288;8.726;2022-08-30T08:14:42;11.97;;;11.07;;
2225;SDS011;1119;48.288;8.726;2022-08-30T08:17:10;10.73;;;10.13;;
2225;SDS011;1119;48.288;8.726;2022-08-30T08:19:37;11.33;;;10.33;;
2225;SDS011;1119;48.288;8.726;2022-08-30T08:22:04;10.20;;;9.60;;
2225;SDS011;1119;48.288;8.726;2022-08-30T08:24:31;10.23;;;9.53;;
2225;SDS011;1119;48.288;8.726;2022-08-30T08:26:58;10.10;;;9.50;;
2225;SDS011;1119;48.288;8.726;2022-08-30T08:29:26;10.50;;;9.80;;
2225;SDS011;1119;48.288;8.726;2022-08-30T08:31:55;10.30;;;9.60;;
2225;SDS011;1119;48.288;8.726;2022-08-30T08:34:22;10.23;;;9.70;;
2225;SDS011;1119;48.288;8.726;2022-08-30T08:36:49;9.93;;;9.23;;
2225;SDS011;1119;48.288;8.726;2022-08-30T08:39:17;10.90;;;10.10;;
2225;SDS011;1119;48.288;8.726;2022-08-30T08:41:48;10.67;;;10.07;;
2225;SDS011;1119;48.288;8.726;2022-08-30T08:44:24;9.00;;;8.50;;
2225;SDS011;1119;48.288;8.726;2022-08-30T08:47:11;10.43;;;9.83;;
2225;SDS011;1119;48.288;8.726;2022-08-30T08:49:43;10.47;;;9.77;;
2225;SDS011;1119;48.288;8.726;2022-08-30T08:52:14;11.07;;;10.27;;
2225;SDS011;1119;48.288;8.726;2022-08-30T08:55:06;9.67;;;9.07;;
2225;SDS011;1119;48.288;8.726;2022-08-30T08:57:36;10.63;;;9.93;;
2225;SDS011;1119;48.288;8.726;2022-08-30T09:00:05;10.97;;;10.27;;
2225;SDS011;1119;48.288;8.726;2022-08-30T09:02:39;11.33;;;10.43;;
2225;SDS011;1119;48.288;8.726;2022-08-30T09:05:10;10.53;;;9.97;;
2225;SDS011;1119;48.288;8.726;2022-08-30T09:07:44;10.97;;;10.23;;
2225;SDS011;1119;48.288;8.726;2022-08-30T09:10:16;11.80;;;10.90;;
2225;SDS011;1119;48.288;8.726;2022-08-30T09:12:43;10.03;;;9.43;;
2225;SDS011;1119;48.288;8.726;2022-08-30T09:15:14;11.10;;;10.20;;
2225;SDS011;1119;48.288;8.726;2022-08-30T09:17:50;10.53;;;9.90;;
2225;SDS011;1119;48.288;8.726;2022-08-30T09:20:24;9.50;;;9.00;;
2225;SDS011;1119;48.288;8.726;2022-08-30T09:22:56;9.97;;;9.27;;
2225;SDS011;1119;48.288;8.726;2022-08-30T09:25:26;10.17;;;9.57;;
2225;SDS011;1119;48.288;8.726;2022-08-30T09:28:08;9.70;;;9.10;;
2225;SDS011;1119;48.288;8.726;2022-08-30T09:30:38;11.27;;;10.47;;
2225;SDS011;1119;48.288;8.726;2022-08-30T09:33:17;11.37;;;9.87;;
2225;SDS011;1119;48.288;8.726;2022-08-30T09:35:46;9.67;;;9.03;;
2225;SDS011;1119;48.288;8.726;2022-08-30T09:38:17;9.80;;;9.20;;
2225;SDS011;1119;48.288;8.726;2022-08-30T09:40:48;9.20;;;8.60;;
2225;SDS011;1119;48.288;8.726;2022-08-30T09:43:22;10.07;;;9.37;;
2225;SDS011;1119;48.288;8.726;2022-08-30T09:46:04;9.93;;;9.13;;
2225;SDS011;1119;48.288;8.726;2022-08-30T09:48:37;9.30;;;8.50;;
2225;SDS011;1119;48.288;8.726;2022-08-30T09:54:15;9.33;;;8.83;;
2225;SDS011;1119;48.288;8.726;2022-08-30T09:56:53;8.63;;;8.13;;
2225;SDS011;1119;48.288;8.726;2022-08-30T09:59:34;9.37;;;8.77;;
2225;SDS011;1119;48.288;8.726;2022-08-30T10:02:15;8.13;;;7.63;;
2225;SDS011;1119;48.288;8.726;2022-08-30T10:05:09;8.97;;;8.40;;
2225;SDS011;1119;48.288;8.726;2022-08-30T10:07:43;8.57;;;8.07;;
2225;SDS011;1119;48.288;8.726;2022-08-30T10:10:19;8.30;;;7.80;;
2225;SDS011;1119;48.288;8.726;2022-08-30T10:12:59;7.97;;;7.57;;
2225;SDS011;1119;48.288;8.726;2022-08-30T10:15:44;8.30;;;7.70;;
2225;SDS011;1119;48.288;8.726;2022-08-30T10:18:17;7.67;;;7.17;;
2225;SDS011;1119;48.288;8.726;2022-08-30T10:20:55;7.57;;;7.07;;
2225;SDS011;1119;48.288;8.726;2022-08-30T10:23:35;8.10;;;7.60;;
2225;SDS011;1119;48.288;8.726;2022-08-30T10:26:10;7.53;;;7.03;;
2225;SDS011;1119;48.288;8.726;2022-08-30T10:28:44;7.53;;;6.87;;
2225;SDS011;1119;48.288;8.726;2022-08-30T10:31:17;6.67;;;6.20;;
2225;SDS011;1119;48.288;8.726;2022-08-30T10:33:53;8.30;;;7.60;;
2225;SDS011;1119;48.288;8.726;2022-08-30T10:36:26;7.60;;;7.20;;
2225;SDS011;1119;48.288;8.726;2022-08-30T10:38:58;7.73;;;7.13;;
2225;SDS011;1119;48.288;8.726;2022-08-30T10:41:31;7.67;;;7.17;;
2225;SDS011;1119;48.288;8.726;2022-08-30T10:44:04;7.77;;;7.30;;
2225;SDS011;1119;48.288;8.726;2022-08-30T10:46:38;7.60;;;6.90;;
2225;SDS011;1119;48.288;8.726;2022-08-30T10:49:27;8.63;;;7.93;;
2225;SDS011;1119;48.288;8.726;2022-08-30T10:52:06;8.20;;;7.60;;
2225;SDS011;1119;48.288;8.726;2022-08-30T10:54:47;7.90;;;7.40;;
2225;SDS011;1119;48.288;8.726;2022-08-30T10:57:18;7.20;;;6.80;;
2225;SDS011;1119;48.288;8.726;2022-08-30T10:59:47;7.90;;;7.40;;
2225;SDS011;1119;48.288;8.726;2022-08-30T11:02:21;6.73;;;6.07;;
2225;SDS011;1119;48.288;8.726;2022-08-30T11:05:22;5.73;;;5.33;;
2225;SDS011;1119;48.288;8.726;2022-08-30T11:08:12;6.43;;;6.03;;
2225;SDS011;1119;48.288;8.726;2022-08-30T11:10:55;6.63;;;6.23;;
2225;SDS011;1119;48.288;8.726;2022-08-30T11:13:33;6.30;;;6.00;;
2225;SDS011;1119;48.288;8.726;2022-08-30T11:16:04;7.40;;;6.90;;
2225;SDS011;1119;48.288;8.726;2022-08-30T11:18:40;6.23;;;5.93;;
2225;SDS011;1119;48.288;8.726;2022-08-30T11:21:15;7.87;;;7.27;;
2225;SDS011;1119;48.288;8.726;2022-08-30T11:24:00;7.50;;;7.00;;
2225;SDS011;1119;48.288;8.726;2022-08-30T11:26:52;7.30;;;6.90;;
2225;SDS011;1119;48.288;8.726;2022-08-30T11:29:27;6.60;;;6.30;;
2225;SDS011;1119;48.288;8.726;2022-08-30T11:32:24;6.80;;;6.43;;
2225;SDS011;1119;48.288;8.726;2022-08-30T11:35:38;7.43;;;7.00;;
2225;SDS011;1119;48.288;8.726;2022-08-30T11:38:18;6.93;;;6.50;;
2225;SDS011;1119;48.288;8.726;2022-08-30T11:41:30;8.17;;;7.67;;
2225;SDS011;1119;48.288;8.726;2022-08-30T11:44:11;7.17;;;6.70;;
2225;SDS011;1119;48.288;8.726;2022-08-30T11:46:55;7.70;;;7.30;;
2225;SDS011;1119;48.288;8.726;2022-08-30T11:49:48;7.13;;;6.73;;
2225;SDS011;1119;48.288;8.726;2022-08-30T11:52:39;6.20;;;5.90;;
2225;SDS011;1119;48.288;8.726;2022-08-30T11:55:24;6.70;;;6.30;;
2225;SDS011;1119;48.288;8.726;2022-08-30T11:58:13;7.43;;;7.03;;
2225;SDS011;1119;48.288;8.726;2022-08-30T12:03:52;7.10;;;6.70;;
2225;SDS011;1119;48.288;8.726;2022-08-30T12:12:43;6.63;;;6.33;;
2225;SDS011;1119;48.288;8.726;2022-08-30T12:18:24;7.83;;;7.33;;
2225;SDS011;1119;48.288;8.726;2022-08-30T12:20:56;6.50;;;6.00;;
2225;SDS011;1119;48.288;8.726;2022-08-30T12:23:39;7.00;;;6.70;;
2225;SDS011;1119;48.288;8.726;2022-08-30T12:26:15;7.63;;;6.97;;
2225;SDS011;1119;48.288;8.726;2022-08-30T12:29:10;6.90;;;6.40;;
2225;SDS011;1119;48.288;8.726;2022-08-30T12:31:44;7.33;;;6.93;;
2225;SDS011;1119;48.288;8.726;2022-08-30T12:34:19;7.30;;;6.80;;
2225;SDS011;1119;48.288;8.726;2022-08-30T12:36:52;7.40;;;7.00;;
2225;SDS011;1119;48.288;8.726;2022-08-30T12:39:26;6.80;;;6.47;;
2225;SDS011;1119;48.288;8.726;2022-08-30T12:41:56;6.87;;;6.47;;
2225;SDS011;1119;48.288;8.726;2022-08-30T12:44:38;7.50;;;7.00;;
2225;SDS011;1119;48.288;8.726;2022-08-30T12:47:06;9.87;;;9.20;;
2225;SDS011;1119;48.288;8.726;2022-08-30T12:49:36;7.47;;;7.00;;
2225;SDS011;1119;48.288;8.726;2022-08-30T12:52:15;6.80;;;6.43;;
2225;SDS011;1119;48.288;8.726;2022-08-30T12:54:48;8.13;;;6.90;;
2225;SDS011;1119;48.288;8.726;2022-08-30T13:00:04;6.90;;;6.50;;
2225;SDS011;1119;48.288;8.726;2022-08-30T13:02:44;6.63;;;6.33;;
2225;SDS011;1119;48.288;8.726;2022-08-30T13:08:15;7.97;;;7.50;;
2225;SDS011;1119;48.288;8.726;2022-08-30T13:10:51;8.37;;;7.87;;
2225;SDS011;1119;48.288;8.726;2022-08-30T13:13:28;7.47;;;7.07;;
2225;SDS011;1119;48.288;8.726;2022-08-30T13:16:23;7.83;;;7.43;;
2225;SDS011;1119;48.288;8.726;2022-08-30T13:18:52;7.17;;;6.77;;
2225;SDS011;1119;48.288;8.726;2022-08-30T13:21:23;7.50;;;7.17;;
2225;SDS011;1119;48.288;8.726;2022-08-30T13:23:54;7.17;;;6.63;;
2225;SDS011;1119;48.288;8.726;2022-08-30T13:26:26;7.20;;;6.70;;
2225;SDS011;1119;48.288;8.726;2022-08-30T13:28:57;6.77;;;6.37;;
2225;SDS011;1119;48.288;8.726;2022-08-30T13:31:26;6.77;;;6.27;;
2225;SDS011;1119;48.288;8.726;2022-08-30T13:33:56;6.90;;;6.50;;
2225;SDS011;1119;48.288;8.726;2022-08-30T13:36:24;7.23;;;6.83;;
2225;SDS011;1119;48.288;8.726;2022-08-30T13:38:57;7.07;;;6.53;;
2225;SDS011;1119;48.288;8.726;2022-08-30T13:41:27;6.80;;;6.40;;
2225;SDS011;1119;48.288;8.726;2022-08-30T13:43:55;6.70;;;6.40;;
2225;SDS011;1119;48.288;8.726;2022-08-30T13:46:22;7.77;;;7.27;;
2225;SDS011;1119;48.288;8.726;2022-08-30T13:48:50;7.23;;;6.83;;
2225;SDS011;1119;48.288;8.726;2022-08-30T13:51:25;8.53;;;7.97;;
2225;SDS011;1119;48.288;8.726;2022-08-30T13:53:52;7.60;;;7.10;;
2225;SDS011;1119;48.288;8.726;2022-08-30T13:56:19;7.17;;;6.77;;
2225;SDS011;1119;48.288;8.726;2022-08-30T13:58:49;7.10;;;6.80;;
2225;SDS011;1119;48.288;8.726;2022-08-30T14:01:16;7.47;;;6.97;;
2225;SDS011;1119;48.288;8.726;2022-08-30T14:03:43;7.47;;;7.07;;
2225;SDS011;1119;48.288;8.726;2022-08-30T14:06:10;7.10;;;6.70;;
2225;SDS011;1119;48.288;8.726;2022-08-30T14:08:37;7.20;;;6.90;;
2225;SDS011;1119;48.288;8.726;2022-08-30T14:11:05;6.93;;;6.60;;
2225;SDS011;1119;48.288;8.726;2022-08-30T14:13:33;7.40;;;6.90;;
2225;SDS011;1119;48.288;8.726;2022-08-30T14:16:03;7.57;;;7.03;;
2225;SDS011;1119;48.288;8.726;2022-08-30T14:18:32;6.73;;;6.43;;
2225;SDS011;1119;48.288;8.726;2022-08-30T14:21:00;7.90;;;7.30;;
2225;SDS011;1119;48.288;8.726;2022-08-30T14:23:27;6.70;;;6.33;;
2225;SDS011;1119;48.288;8.726;2022-08-30T14:25:55;6.87;;;6.50;;
2225;SDS011;1119;48.288;8.726;2022-08-30T14:28:24;8.23;;;7.73;;
2225;SDS011;1119;48.288;8.726;2022-08-30T14:30:54;7.50;;;7.10;;
2225;SDS011;1119;48.288;8.726;2022-08-30T14:33:22;8.33;;;7.90;;
2225;SDS011;1119;48.288;8.726;2022-08-30T14:35:50;7.57;;;7.17;;
2225;SDS011;1119;48.288;8.726;2022-08-30T14:38:17;7.43;;;7.03;;
2225;SDS011;1119;48.288;8.726;2022-08-30T14:40:44;7.47;;;6.97;;
2225;SDS011;1119;48.288;8.726;2022-08-30T14:43:11;7.20;;;6.80;;
2225;SDS011;1119;48.288;8.726;2022-08-30T14:45:38;7.33;;;6.93;;
2225;SDS011;1119;48.288;8.726;2022-08-30T14:48:05;7.13;;;6.63;;
2225;SDS011;1119;48.288;8.726;2022-08-30T14:50:34;7.10;;;6.70;;
2225;SDS011;1119;48.288;8.726;2022-08-30T14:53:02;7.20;;;6.80;;
2225;SDS011;1119;48.288;8.726;2022-08-30T14:55:30;6.50;;;6.20;;
2225;SDS011;1119;48.288;8.726;2022-08-30T14:57:58;6.80;;;6.50;;
2225;SDS011;1119;48.288;8.726;2022-08-30T15:00:26;7.37;;;6.97;;
2225;SDS011;1119;48.288;8.726;2022-08-30T15:02:54;7.10;;;6.70;;
2225;SDS011;1119;48.288;8.726;2022-08-30T15:05:22;8.53;;;8.00;;
2225;SDS011;1119;48.288;8.726;2022-08-30T15:07:50;10.07;;;9.27;;
2225;SDS011;1119;48.288;8.726;2022-08-30T15:10:18;8.60;;;7.80;;
2225;SDS011;1119;48.288;8.726;2022-08-30T15:12:47;7.60;;;7.10;;
2225;SDS011;1119;48.288;8.726;2022-08-30T15:15:15;8.23;;;7.73;;
2225;SDS011;1119;48.288;8.726;2022-08-30T15:17:45;7.03;;;6.63;;
2225;SDS011;1119;48.288;8.726;2022-08-30T15:20:13;7.63;;;7.23;;
2225;SDS011;1119;48.288;8.726;2022-08-30T15:22:42;7.83;;;7.17;;
2225;SDS011;1119;48.288;8.726;2022-08-30T15:25:11;8.50;;;8.10;;
2225;SDS011;1119;48.288;8.726;2022-08-30T15:27:39;10.53;;;9.60;;
2225;SDS011;1119;48.288;8.726;2022-08-30T15:30:07;8.77;;;8.27;;
2225;SDS011;1119;48.288;8.726;2022-08-30T15:32:36;7.70;;;7.20;;
2225;SDS011;1119;48.288;8.726;2022-08-30T15:35:04;8.67;;;8.07;;
2225;SDS011;1119;48.288;8.726;2022-08-30T15:37:32;8.70;;;8.20;;
2225;SDS011;1119;48.288;8.726;2022-08-30T15:39:59;7.40;;;7.00;;
2225;SDS011;1119;48.288;8.726;2022-08-30T15:42:28;8.23;;;7.83;;
2225;SDS011;1119;48.288;8.726;2022-08-30T15:44:55;8.63;;;8.10;;